Map

Track Data

SID SEASON NUMBER BASIN SUBBASIN NAME ISO_TIME NATURE LAT LON WMO_WIND WMO_PRES WMO_AGENCY TRACK_TYPE DIST2LAND LANDFALL IFLAG USA_AGENCY USA_ATCF_ID USA_LAT USA_LON USA_RECORD USA_STATUS USA_WIND USA_PRES USA_SSHS USA_R34_NE USA_R34_SE USA_R34_SW USA_R34_NW USA_R50_NE USA_R50_SE USA_R50_SW USA_R50_NW USA_R64_NE USA_R64_SE USA_R64_SW USA_R64_NW USA_POCI USA_ROCI USA_RMW USA_EYE TOKYO_LAT TOKYO_LON TOKYO_GRADE TOKYO_WIND TOKYO_PRES TOKYO_R50_DIR TOKYO_R50_LONG TOKYO_R50_SHORT TOKYO_R30_DIR TOKYO_R30_LONG TOKYO_R30_SHORT TOKYO_LAND CMA_LAT CMA_LON CMA_CAT CMA_WIND CMA_PRES HKO_LAT HKO_LON HKO_CAT HKO_WIND HKO_PRES NEWDELHI_LAT NEWDELHI_LON NEWDELHI_GRADE NEWDELHI_WIND NEWDELHI_PRES NEWDELHI_CI NEWDELHI_DP NEWDELHI_POCI REUNION_LAT REUNION_LON REUNION_TYPE REUNION_WIND REUNION_PRES REUNION_TNUM REUNION_CI REUNION_RMW REUNION_R34_NE REUNION_R34_SE REUNION_R34_SW REUNION_R34_NW REUNION_R50_NE REUNION_R50_SE REUNION_R50_SW REUNION_R50_NW REUNION_R64_NE REUNION_R64_SE REUNION_R64_SW REUNION_R64_NW BOM_LAT BOM_LON BOM_TYPE BOM_WIND BOM_PRES BOM_TNUM BOM_CI BOM_RMW BOM_R34_NE BOM_R34_SE BOM_R34_SW BOM_R34_NW BOM_R50_NE BOM_R50_SE BOM_R50_SW BOM_R50_NW BOM_R64_NE BOM_R64_SE BOM_R64_SW BOM_R64_NW BOM_ROCI BOM_POCI BOM_EYE BOM_POS_METHOD BOM_PRES_METHOD NADI_LAT NADI_LON NADI_CAT NADI_WIND NADI_PRES WELLINGTON_LAT WELLINGTON_LON WELLINGTON_WIND WELLINGTON_PRES DS824_LAT DS824_LON DS824_STAGE DS824_WIND DS824_PRES TD9636_LAT TD9636_LON TD9636_STAGE TD9636_WIND TD9636_PRES TD9635_LAT TD9635_LON TD9635_WIND TD9635_PRES TD9635_ROCI NEUMANN_LAT NEUMANN_LON NEUMANN_CLASS NEUMANN_WIND NEUMANN_PRES MLC_LAT MLC_LON MLC_CLASS MLC_WIND MLC_PRES USA_GUST BOM_GUST BOM_GUST_PER REUNION_GUST REUNION_GUST_PER USA_SEAHGT USA_SEARAD_NE USA_SEARAD_SE USA_SEARAD_SW USA_SEARAD_NW STORM_SPEED STORM_DIR
1961070S13195 1961 28 SP MM NOT_NAMED 1961-03-10 12:00:00 TS -12.8000 -165.000 main 786 786 O________OO___ jtwc_sh SH241961 -12.8000 -165.000 -1 -12.8000 195.000 TC -12.8000 -165.000 2 7 82
1961070S13195 1961 28 SP MM NOT_NAMED 1961-03-10 15:00:00 TS -12.7492 -164.646 main 830 830 P________PP___ SH241961 -12.7501 -164.652 -1 -12.7501 -164.652 TC -12.7473 -164.634 2 7 82
1961070S13195 1961 28 SP MM NOT_NAMED 1961-03-10 18:00:00 TS -12.6985 -164.292 main 862 862 O________OP___ jtwc_sh SH241961 -12.7000 -164.300 -1 -12.7000 195.700 TC -12.6955 -164.275 2 7 82
1961070S13195 1961 28 SP MM NOT_NAMED 1961-03-10 21:00:00 TS -12.6486 -163.938 main 907 907 P________PP___ SH241961 -12.6500 -163.943 -1 -12.6500 -163.943 TC -12.6459 -163.928 2 7 82
1961070S13195 1961 28 SP MM NOT_NAMED 1961-03-11 00:00:00 TS -12.6000 -163.600 main 939 939 O________OO_O_ jtwc_sh SH241961 -12.6000 -163.600 -1 -12.6000 196.400 TC 35 -12.6000 -163.600 2 -12.6000 -163.600 TC 25 6 81
1961070S13195 1961 28 SP MM NOT_NAMED 1961-03-11 03:00:00 TS -12.5470 -163.299 main 973 973 P________PP_P_ SH241961 -12.5425 -163.285 -1 -12.5425 -163.285 TC 35 -12.5595 -163.295 2 -12.5400 -163.362 TC 27 6 81
1961070S13195 1961 28 SP MM NOT_NAMED 1961-03-11 06:00:00 TS -12.5073 -163.023 main 1005 1005 O________OP_O_ jtwc_sh SH241961 -12.5000 -163.000 -1 -12.5000 197.000 TC 35 -12.5273 -163.013 2 -12.5000 -163.100 TC 30 5 85
1961070S13195 1961 28 SP MM NOT_NAMED 1961-03-11 09:00:00 TS -12.4960 -162.755 main 1027 1027 P________PP_P_ SH241961 -12.4925 -162.735 -1 -12.4925 -162.735 TC 35 -12.5065 -162.748 2 -12.4925 -162.800 TC 30 5 89
1961070S13195 1961 28 SP MM NOT_NAMED 1961-03-11 12:00:00 TS -12.5000 -162.500 main 1059 1059 O________OO_O_ jtwc_sh SH241961 -12.5000 -162.500 -1 -12.5000 197.500 TC 35 -12.5000 -162.500 2 -12.5000 -162.500 TC 30 5 90
1961070S13195 1961 28 SP MM NOT_NAMED 1961-03-11 15:00:00 TS -12.4939 -162.279 main 1081 1081 P________PP_P_ SH241961 -12.4924 -162.300 -1 -12.4924 -162.300 TC 35 -12.4982 -162.281 2 -12.4925 -162.235 TC 32 4 90
1961070S13195 1961 28 SP MM NOT_NAMED 1961-03-11 18:00:00 TS -12.5030 -162.068 main 1102 1102 O________OP_O_ jtwc_sh SH241961 -12.5000 -162.100 -1 -12.5000 197.900 TC 35 -12.5121 -162.072 2 -12.5000 -162.000 TC 35 4 96
1961070S13195 1961 28 SP MM NOT_NAMED 1961-03-11 21:00:00 TS -12.5375 -161.853 main 1124 1124 P________PP_P_ SH241961 -12.5349 -161.872 -1 -12.5349 -161.872 TC 35 -12.5450 -161.853 2 -12.5349 -161.815 TC 35 5 102
1961070S13195 1961 28 SP MM NOT_NAMED 1961-03-12 00:00:00 TS -12.6000 -161.600 main 1154 1154 O________OO_O_ jtwc_sh SH241961 -12.6000 -161.600 -1 -12.6000 198.400 TC 35 -12.6000 -161.600 2 -12.6000 -161.600 TC 35 6 105
1961070S13195 1961 28 SP MM NOT_NAMED 1961-03-12 03:00:00 TS -12.6891 -161.266 main 1185 1185 P________PP_P_ SH241961 -12.6925 -161.265 -1 -12.6925 -161.265 TC 35 -12.6787 -161.262 2 -12.6925 -161.273 TC 32 7 106
1961070S13195 1961 28 SP MM NOT_NAMED 1961-03-12 06:00:00 TS -12.7945 -160.898 main 1227 1227 O________OP_O_ jtwc_sh SH241961 -12.8000 -160.900 -1 -12.8000 199.100 TC 35 -12.7779 -160.893 2 -12.8000 -160.900 TC 30 7 106
1961070S13195 1961 28 SP MM NOT_NAMED 1961-03-12 09:00:00 TS -12.8970 -160.531 main 1269 1269 P________PP_P_ SH241961 -12.9000 -160.535 -1 -12.9000 -160.535 TC 35 -12.8881 -160.527 2 -12.9000 -160.527 TC 30 7 107
1961070S13195 1961 28 SP MM NOT_NAMED 1961-03-12 12:00:00 TS -13.0000 -160.200 main 1301 1301 O________OO_O_ jtwc_sh SH241961 -13.0000 -160.200 -1 -13.0000 199.800 TC 35 -13.0000 -160.200 2 -13.0000 -160.200 TC 30 6 109
1961070S13195 1961 28 SP MM NOT_NAMED 1961-03-12 15:00:00 TS -13.1016 -159.938 main 1332 1332 P________PP_P_ SH241961 -13.1000 -159.920 -1 -13.1000 -159.920 TC 35 -13.1064 -159.936 2 -13.0999 -159.977 TC 27 5 114
1961070S13195 1961 28 SP MM NOT_NAMED 1961-03-12 18:00:00 TS -13.2018 -159.732 main 1353 1353 O________OP_O_ jtwc_sh SH241961 -13.2000 -159.700 -1 -13.2000 200.300 TC 35 -13.2072 -159.727 2 -13.2000 -159.800 TC 25 4 118
1961070S13195 1961 28 SP MM NOT_NAMED 1961-03-12 21:00:00 TS -13.3012 -159.558 main 1363 1363 P________PP_P_ SH241961 -13.3000 -159.535 -1 -13.3000 -159.535 TC 35 -13.3045 -159.555 2 -13.3001 -159.608 TC 22 4 121
1961070S13195 1961 28 SP MM NOT_NAMED 1961-03-13 00:00:00 TS -13.4000 -159.400 main 1384 O________OO_O_ jtwc_sh SH241961 -13.4000 -159.400 -1 -13.4000 200.600 TC 35 -13.4000 -159.400 2 -13.4000 -159.400 TC 20 4 123

Digital Typhoon Data and Search

About IBTrACS Database

This database is a web-friendly format of International Best Track Archive for Climate Stewardship (IBTrACS), a global best track data archive curated by NOAA dating back to 1842.

Updated: 2021-10-19